sensor_id;sensor_type;location;lat;lon;timestamp;pressure;altitude;pressure_sealevel;temperature;humidity
47738;BME280;33502;47.182;27.506;2023-04-26T00:00:13;98820.44;;;9.51;100.00
47738;BME280;33502;47.182;27.506;2023-04-26T00:02:39;98832.53;;;9.40;100.00
47738;BME280;33502;47.182;27.506;2023-04-26T00:05:05;98832.91;;;9.34;100.00
47738;BME280;33502;47.182;27.506;2023-04-26T00:07:31;98834.16;;;9.29;100.00
47738;BME280;33502;47.182;27.506;2023-04-26T00:09:58;98834.31;;;9.26;100.00
47738;BME280;33502;47.182;27.506;2023-04-26T00:12:24;98832.72;;;9.23;100.00
47738;BME280;33502;47.182;27.506;2023-04-26T00:15:04;98829.97;;;9.25;100.00
47738;BME280;33502;47.182;27.506;2023-04-26T00:17:30;98830.84;;;9.25;100.00
47738;BME280;33502;47.182;27.506;2023-04-26T00:19:56;98829.88;;;9.26;100.00
47738;BME280;33502;47.182;27.506;2023-04-26T00:22:22;98833.19;;;9.30;100.00
47738;BME280;33502;47.182;27.506;2023-04-26T00:24:48;98839.97;;;9.34;100.00
47738;BME280;33502;47.182;27.506;2023-04-26T00:27:14;98841.47;;;9.38;100.00
47738;BME280;33502;47.182;27.506;2023-04-26T00:29:40;98834.13;;;9.43;100.00
47738;BME280;33502;47.182;27.506;2023-04-26T00:32:05;98840.16;;;9.45;100.00
47738;BME280;33502;47.182;27.506;2023-04-26T00:34:31;98843.56;;;9.47;100.00
47738;BME280;33502;47.182;27.506;2023-04-26T00:36:57;98836.38;;;9.49;100.00
47738;BME280;33502;47.182;27.506;2023-04-26T00:39:23;98835.44;;;9.50;100.00
47738;BME280;33502;47.182;27.506;2023-04-26T00:41:48;98832.72;;;9.52;100.00
47738;BME280;33502;47.182;27.506;2023-04-26T00:44:14;98831.59;;;9.56;100.00
47738;BME280;33502;47.182;27.506;2023-04-26T00:46:40;98835.81;;;9.58;100.00
47738;BME280;33502;47.182;27.506;2023-04-26T00:49:05;98831.38;;;9.59;100.00
47738;BME280;33502;47.182;27.506;2023-04-26T00:51:31;98835.91;;;9.57;100.00
47738;BME280;33502;47.182;27.506;2023-04-26T00:53:57;98830.63;;;9.57;100.00
47738;BME280;33502;47.182;27.506;2023-04-26T00:56:23;98840.09;;;9.61;100.00
47738;BME280;33502;47.182;27.506;2023-04-26T00:58:49;98838.06;;;9.65;100.00
47738;BME280;33502;47.182;27.506;2023-04-26T01:01:15;98829.13;;;9.67;100.00
47738;BME280;33502;47.182;27.506;2023-04-26T01:03:41;98827.88;;;9.73;100.00
47738;BME280;33502;47.182;27.506;2023-04-26T01:06:06;98833.84;;;9.76;100.00
47738;BME280;33502;47.182;27.506;2023-04-26T01:08:35;98826.66;;;9.78;100.00
47738;BME280;33502;47.182;27.506;2023-04-26T01:11:01;98824.53;;;9.84;100.00
47738;BME280;33502;47.182;27.506;2023-04-26T01:13:26;98833.13;;;9.87;100.00
47738;BME280;33502;47.182;27.506;2023-04-26T01:15:53;98827.66;;;9.90;100.00
47738;BME280;33502;47.182;27.506;2023-04-26T01:18:20;98821.41;;;9.91;100.00
47738;BME280;33502;47.182;27.506;2023-04-26T01:20:45;98820.25;;;9.95;100.00
47738;BME280;33502;47.182;27.506;2023-04-26T01:23:11;98817.63;;;9.95;100.00
47738;BME280;33502;47.182;27.506;2023-04-26T01:25:37;98814.88;;;9.97;100.00
47738;BME280;33502;47.182;27.506;2023-04-26T01:28:03;98812.22;;;9.97;100.00
47738;BME280;33502;47.182;27.506;2023-04-26T01:30:28;98806.94;;;9.97;100.00
47738;BME280;33502;47.182;27.506;2023-04-26T01:32:54;98815.75;;;9.97;100.00
47738;BME280;33502;47.182;27.506;2023-04-26T01:35:20;98810.47;;;9.97;100.00
47738;BME280;33502;47.182;27.506;2023-04-26T01:37:46;98815.63;;;9.99;100.00
47738;BME280;33502;47.182;27.506;2023-04-26T01:40:12;98814.50;;;10.03;100.00
47738;BME280;33502;47.182;27.506;2023-04-26T01:42:38;98809.97;;;10.05;100.00
47738;BME280;33502;47.182;27.506;2023-04-26T01:45:03;98806.34;;;10.06;100.00
47738;BME280;33502;47.182;27.506;2023-04-26T01:47:49;98807.31;;;10.05;100.00
47738;BME280;33502;47.182;27.506;2023-04-26T01:50:15;98800.31;;;10.04;100.00
47738;BME280;33502;47.182;27.506;2023-04-26T01:52:41;98806.34;;;10.06;100.00
47738;BME280;33502;47.182;27.506;2023-04-26T01:55:06;98804.56;;;10.07;100.00
47738;BME280;33502;47.182;27.506;2023-04-26T01:57:32;98801.16;;;10.05;100.00
47738;BME280;33502;47.182;27.506;2023-04-26T01:59:58;98798.50;;;10.05;100.00
47738;BME280;33502;47.182;27.506;2023-04-26T02:02:25;98802.03;;;10.05;100.00
47738;BME280;33502;47.182;27.506;2023-04-26T02:04:50;98800.31;;;10.04;100.00
47738;BME280;33502;47.182;27.506;2023-04-26T02:07:16;98798.50;;;10.05;100.00
47738;BME280;33502;47.182;27.506;2023-04-26T02:09:44;98803.72;;;10.06;100.00
47738;BME280;33502;47.182;27.506;2023-04-26T02:12:11;98797.69;;;10.04;100.00
47738;BME280;33502;47.182;27.506;2023-04-26T02:14:36;98788.91;;;10.04;100.00
47738;BME280;33502;47.182;27.506;2023-04-26T02:17:02;98794.19;;;10.04;100.00
47738;BME280;33502;47.182;27.506;2023-04-26T02:19:28;98793.22;;;10.05;100.00
47738;BME280;33502;47.182;27.506;2023-04-26T02:21:54;98799.06;;;10.10;100.00
47738;BME280;33502;47.182;27.506;2023-04-26T02:24:22;98793.22;;;10.05;100.00
47738;BME280;33502;47.182;27.506;2023-04-26T02:26:48;98793.44;;;10.02;100.00
47738;BME280;33502;47.182;27.506;2023-04-26T02:29:13;98793.72;;;9.97;100.00
47738;BME280;33502;47.182;27.506;2023-04-26T02:31:39;98797.34;;;9.96;100.00
47738;BME280;33502;47.182;27.506;2023-04-26T02:34:05;98798.06;;;9.98;100.00
47738;BME280;33502;47.182;27.506;2023-04-26T02:36:31;98795.34;;;9.99;100.00
47738;BME280;33502;47.182;27.506;2023-04-26T02:38:57;98804.03;;;10.02;100.00
47738;BME280;33502;47.182;27.506;2023-04-26T02:41:23;98803.16;;;10.01;100.00
47738;BME280;33502;47.182;27.506;2023-04-26T02:43:49;98804.03;;;10.02;100.00
47738;BME280;33502;47.182;27.506;2023-04-26T02:46:16;98808.44;;;10.01;100.00
47738;BME280;33502;47.182;27.506;2023-04-26T02:48:42;98807.59;;;10.00;100.00
47738;BME280;33502;47.182;27.506;2023-04-26T02:51:07;98807.59;;;10.00;100.00
47738;BME280;33502;47.182;27.506;2023-04-26T02:53:33;98809.50;;;9.98;100.00
47738;BME280;33502;47.182;27.506;2023-04-26T02:55:59;98814.69;;;10.00;100.00
47738;BME280;33502;47.182;27.506;2023-04-26T02:58:27;98812.03;;;10.00;100.00
47738;BME280;33502;47.182;27.506;2023-04-26T03:00:55;98808.56;;;9.99;100.00
47738;BME280;33502;47.182;27.506;2023-04-26T03:03:22;98817.25;;;10.02;100.00
47738;BME280;33502;47.182;27.506;2023-04-26T03:05:48;98822.44;;;10.03;100.00
47738;BME280;33502;47.182;27.506;2023-04-26T03:08:14;98824.97;;;10.05;100.00
47738;BME280;33502;47.182;27.506;2023-04-26T03:10:40;98824.88;;;10.06;100.00
47738;BME280;33502;47.182;27.506;2023-04-26T03:13:06;98830.16;;;10.06;100.00
47738;BME280;33502;47.182;27.506;2023-04-26T03:15:32;98838.00;;;10.08;100.00
47738;BME280;33502;47.182;27.506;2023-04-26T03:17:58;98837.03;;;10.09;100.00
47738;BME280;33502;47.182;27.506;2023-04-26T03:20:24;98869.56;;;10.11;100.00
47738;BME280;33502;47.182;27.506;2023-04-26T03:22:50;98871.97;;;9.58;100.00
47738;BME280;33502;47.182;27.506;2023-04-26T03:25:16;98872.41;;;9.07;100.00
47738;BME280;33502;47.182;27.506;2023-04-26T03:27:42;98870.72;;;8.76;100.00
47738;BME280;33502;47.182;27.506;2023-04-26T03:30:07;98878.25;;;8.52;100.00
47738;BME280;33502;47.182;27.506;2023-04-26T03:32:35;98874.63;;;8.22;100.00
47738;BME280;33502;47.182;27.506;2023-04-26T03:35:01;98880.22;;;8.00;100.00
47738;BME280;33502;47.182;27.506;2023-04-26T03:37:27;98882.78;;;7.86;100.00
47738;BME280;33502;47.182;27.506;2023-04-26T03:40:00;98882.50;;;7.75;100.00
47738;BME280;33502;47.182;27.506;2023-04-26T03:42:25;98892.69;;;7.65;100.00
47738;BME280;33502;47.182;27.506;2023-04-26T03:44:52;98887.75;;;7.59;100.00
47738;BME280;33502;47.182;27.506;2023-04-26T03:47:18;98893.34;;;7.53;100.00
47738;BME280;33502;47.182;27.506;2023-04-26T03:49:44;98891.81;;;7.49;100.00
47738;BME280;33502;47.182;27.506;2023-04-26T03:52:10;98899.88;;;7.45;100.00
47738;BME280;33502;47.182;27.506;2023-04-26T03:54:35;98909.66;;;7.43;100.00
47738;BME280;33502;47.182;27.506;2023-04-26T03:57:01;98905.38;;;7.41;100.00
47738;BME280;33502;47.182;27.506;2023-04-26T03:59:28;98904.59;;;7.39;100.00
47738;BME280;33502;47.182;27.506;2023-04-26T04:01:54;98912.50;;;7.39;100.00
47738;BME280;33502;47.182;27.506;2023-04-26T04:04:19;98920.41;;;7.39;100.00
47738;BME280;33502;47.182;27.506;2023-04-26T04:06:46;98924.00;;;7.38;100.00
47738;BME280;33502;47.182;27.506;2023-04-26T04:09:11;98937.16;;;7.38;100.00
47738;BME280;33502;47.182;27.506;2023-04-26T04:11:37;98947.84;;;7.35;100.00
47738;BME280;33502;47.182;27.506;2023-04-26T04:14:03;98945.34;;;7.32;100.00
47738;BME280;33502;47.182;27.506;2023-04-26T04:16:28;98956.91;;;7.29;100.00
47738;BME280;33502;47.182;27.506;2023-04-26T04:18:54;98965.81;;;7.27;100.00
47738;BME280;33502;47.182;27.506;2023-04-26T04:21:20;98960.69;;;7.23;100.00
47738;BME280;33502;47.182;27.506;2023-04-26T04:23:46;98970.44;;;7.21;100.00
47738;BME280;33502;47.182;27.506;2023-04-26T04:26:12;98966.03;;;7.22;100.00
47738;BME280;33502;47.182;27.506;2023-04-26T04:28:39;98983.75;;;7.18;100.00
47738;BME280;33502;47.182;27.506;2023-04-26T04:31:06;98987.28;;;7.19;100.00
47738;BME280;33502;47.182;27.506;2023-04-26T04:33:34;99007.38;;;7.20;100.00
47738;BME280;33502;47.182;27.506;2023-04-26T04:36:00;99000.50;;;7.17;100.00
47738;BME280;33502;47.182;27.506;2023-04-26T04:38:26;99008.41;;;7.17;100.00
47738;BME280;33502;47.182;27.506;2023-04-26T04:40:52;98999.72;;;7.15;100.00
47738;BME280;33502;47.182;27.506;2023-04-26T04:43:18;99012.97;;;7.14;100.00
47738;BME280;33502;47.182;27.506;2023-04-26T04:45:44;99017.38;;;7.13;100.00
47738;BME280;33502;47.182;27.506;2023-04-26T04:48:10;99009.47;;;7.13;100.00
47738;BME280;33502;47.182;27.506;2023-04-26T04:50:37;99019.16;;;7.13;100.00
47738;BME280;33502;47.182;27.506;2023-04-26T04:53:03;99009.63;;;7.10;100.00
47738;BME280;33502;47.182;27.506;2023-04-26T04:55:29;99011.56;;;7.06;100.00
47738;BME280;33502;47.182;27.506;2023-04-26T04:57:56;99021.16;;;7.08;100.00
47738;BME280;33502;47.182;27.506;2023-04-26T05:00:22;99018.59;;;7.06;100.00
47738;BME280;33502;47.182;27.506;2023-04-26T05:02:52;99024.72;;;7.06;100.00
47738;BME280;33502;47.182;27.506;2023-04-26T05:05:18;99028.22;;;7.07;100.00
47738;BME280;33502;47.182;27.506;2023-04-26T05:07:44;99028.22;;;7.07;100.00
47738;BME280;33502;47.182;27.506;2023-04-26T05:10:10;99028.22;;;7.07;100.00
47738;BME280;33502;47.182;27.506;2023-04-26T05:12:36;99030.84;;;7.07;100.00
47738;BME280;33502;47.182;27.506;2023-04-26T05:15:02;99030.69;;;7.10;100.00
47738;BME280;33502;47.182;27.506;2023-04-26T05:17:30;99024.34;;;7.14;100.00
47738;BME280;33502;47.182;27.506;2023-04-26T05:19:57;99027.75;;;7.16;100.00
47738;BME280;33502;47.182;27.506;2023-04-26T05:22:23;99026.06;;;7.15;100.00
47738;BME280;33502;47.182;27.506;2023-04-26T05:24:49;99020.72;;;7.17;100.00
47738;BME280;33502;47.182;27.506;2023-04-26T05:27:15;99032.22;;;7.14;100.00
47738;BME280;33502;47.182;27.506;2023-04-26T05:29:48;99028.75;;;7.14;100.00
47738;BME280;33502;47.182;27.506;2023-04-26T05:32:33;99030.38;;;7.16;100.00
47738;BME280;33502;47.182;27.506;2023-04-26T05:35:24;99037.34;;;7.17;100.00
47738;BME280;33502;47.182;27.506;2023-04-26T05:37:49;99040.84;;;7.18;100.00
47738;BME280;33502;47.182;27.506;2023-04-26T05:40:17;99038.19;;;7.18;100.00
47738;BME280;33502;47.182;27.506;2023-04-26T05:42:43;99043.63;;;7.15;100.00
47738;BME280;33502;47.182;27.506;2023-04-26T05:45:09;99032.16;;;7.16;100.00
47738;BME280;33502;47.182;27.506;2023-04-26T05:47:35;99048.59;;;7.21;100.00
47738;BME280;33502;47.182;27.506;2023-04-26T05:50:01;99047.75;;;7.20;100.00
47738;BME280;33502;47.182;27.506;2023-04-26T05:52:26;99049.50;;;7.20;100.00
47738;BME280;33502;47.182;27.506;2023-04-26T05:54:52;99052.84;;;7.23;100.00
47738;BME280;33502;47.182;27.506;2023-04-26T05:57:18;99055.16;;;7.30;100.00
47738;BME280;33502;47.182;27.506;2023-04-26T05:59:44;99051.56;;;7.32;100.00
47738;BME280;33502;47.182;27.506;2023-04-26T06:02:09;99060.22;;;7.34;100.00
47738;BME280;33502;47.182;27.506;2023-04-26T06:04:37;99070.06;;;7.31;100.00
47738;BME280;33502;47.182;27.506;2023-04-26T06:07:06;99072.53;;;7.34;100.00
47738;BME280;33502;47.182;27.506;2023-04-26T06:09:33;99073.59;;;7.30;100.00
47738;BME280;33502;47.182;27.506;2023-04-26T06:11:59;99069.22;;;7.30;100.00
47738;BME280;33502;47.182;27.506;2023-04-26T06:14:24;99077.19;;;7.29;100.00
47738;BME280;33502;47.182;27.506;2023-04-26T06:16:51;99076.03;;;7.34;100.00
47738;BME280;33502;47.182;27.506;2023-04-26T06:19:17;99083.06;;;7.34;100.00
47738;BME280;33502;47.182;27.506;2023-04-26T06:21:42;99085.72;;;7.34;100.00
47738;BME280;33502;47.182;27.506;2023-04-26T06:24:08;99089.91;;;7.38;100.00
47738;BME280;33502;47.182;27.506;2023-04-26T06:26:35;99087.88;;;7.43;100.00
47738;BME280;33502;47.182;27.506;2023-04-26T06:29:02;99081.44;;;7.49;100.00
47738;BME280;33502;47.182;27.506;2023-04-26T06:31:28;99090.22;;;7.49;100.00
47738;BME280;33502;47.182;27.506;2023-04-26T06:33:55;99091.91;;;7.50;100.00
47738;BME280;33502;47.182;27.506;2023-04-26T06:36:20;99100.75;;;7.49;100.00
47738;BME280;33502;47.182;27.506;2023-04-26T06:38:46;99100.66;;;7.51;100.00
47738;BME280;33502;47.182;27.506;2023-04-26T06:41:12;99109.25;;;7.54;100.00
47738;BME280;33502;47.182;27.506;2023-04-26T06:43:38;99122.94;;;7.62;100.00
47738;BME280;33502;47.182;27.506;2023-04-26T06:46:17;99117.47;;;7.65;100.00
47738;BME280;33502;47.182;27.506;2023-04-26T06:48:48;99118.31;;;7.66;100.00
47738;BME280;33502;47.182;27.506;2023-04-26T06:51:14;99128.34;;;7.59;100.00
47738;BME280;33502;47.182;27.506;2023-04-26T06:53:40;99135.28;;;7.60;100.00
47738;BME280;33502;47.182;27.506;2023-04-26T06:56:06;99139.56;;;7.63;100.00
47738;BME280;33502;47.182;27.506;2023-04-26T06:58:32;99143.28;;;7.59;100.00
47738;BME280;33502;47.182;27.506;2023-04-26T07:00:57;99141.56;;;7.58;100.00
47738;BME280;33502;47.182;27.506;2023-04-26T07:03:23;99143.28;;;7.59;100.00
47738;BME280;33502;47.182;27.506;2023-04-26T07:05:49;99152.97;;;7.58;100.00
47738;BME280;33502;47.182;27.506;2023-04-26T07:08:15;99155.38;;;7.63;100.00
47738;BME280;33502;47.182;27.506;2023-04-26T07:10:41;99160.72;;;7.61;100.00
47738;BME280;33502;47.182;27.506;2023-04-26T07:13:06;99168.50;;;7.64;100.00
47738;BME280;33502;47.182;27.506;2023-04-26T07:15:32;99165.22;;;7.59;100.00
47738;BME280;33502;47.182;27.506;2023-04-26T07:17:58;99162.34;;;7.64;100.00
47738;BME280;33502;47.182;27.506;2023-04-26T07:20:23;99164.91;;;7.65;100.00
47738;BME280;33502;47.182;27.506;2023-04-26T07:22:49;99166.75;;;7.63;100.00
47738;BME280;33502;47.182;27.506;2023-04-26T07:25:15;99184.38;;;7.63;100.00
47738;BME280;33502;47.182;27.506;2023-04-26T07:27:41;99178.31;;;7.61;100.00
47738;BME280;33502;47.182;27.506;2023-04-26T07:30:07;99190.63;;;7.60;100.00
47738;BME280;33502;47.182;27.506;2023-04-26T07:32:33;99183.41;;;7.64;100.00
47738;BME280;33502;47.182;27.506;2023-04-26T07:34:58;99183.59;;;7.61;100.00
47738;BME280;33502;47.182;27.506;2023-04-26T07:37:24;99170.56;;;7.58;100.00
47738;BME280;33502;47.182;27.506;2023-04-26T07:39:50;99180.31;;;7.56;100.00
47738;BME280;33502;47.182;27.506;2023-04-26T07:42:15;99182.41;;;7.49;100.00
47738;BME280;33502;47.182;27.506;2023-04-26T07:44:41;99183.56;;;7.43;100.00
47738;BME280;33502;47.182;27.506;2023-04-26T07:47:13;99192.22;;;7.45;100.00
47738;BME280;33502;47.182;27.506;2023-04-26T07:49:38;99197.63;;;7.42;100.00
47738;BME280;33502;47.182;27.506;2023-04-26T07:52:04;99196.78;;;7.42;100.00
47738;BME280;33502;47.182;27.506;2023-04-26T07:54:30;99204.13;;;7.35;100.00
47738;BME280;33502;47.182;27.506;2023-04-26T07:56:55;99199.22;;;7.28;100.00
47738;BME280;33502;47.182;27.506;2023-04-26T07:59:22;99199.56;;;7.20;100.00
47738;BME280;33502;47.182;27.506;2023-04-26T08:01:48;99207.41;;;7.21;100.00
47738;BME280;33502;47.182;27.506;2023-04-26T08:04:14;99206.75;;;7.16;100.00
47738;BME280;33502;47.182;27.506;2023-04-26T08:06:40;99206.13;;;7.11;100.00
47738;BME280;33502;47.182;27.506;2023-04-26T08:09:09;99216.66;;;7.11;100.00
47738;BME280;33502;47.182;27.506;2023-04-26T08:11:35;99219.13;;;7.14;100.00
47738;BME280;33502;47.182;27.506;2023-04-26T08:14:01;99221.63;;;7.17;100.00
47738;BME280;33502;47.182;27.506;2023-04-26T08:16:26;99219.72;;;7.21;100.00
47738;BME280;33502;47.182;27.506;2023-04-26T08:18:52;99219.56;;;7.24;100.00
47738;BME280;33502;47.182;27.506;2023-04-26T08:21:19;99219.66;;;7.22;100.00
47738;BME280;33502;47.182;27.506;2023-04-26T08:23:44;99223.13;;;7.23;100.00
47738;BME280;33502;47.182;27.506;2023-04-26T08:26:10;99230.75;;;7.29;100.00
47738;BME280;33502;47.182;27.506;2023-04-26T08:28:36;99227.63;;;7.40;100.00
47738;BME280;33502;47.182;27.506;2023-04-26T08:31:03;99232.44;;;7.49;100.00
47738;BME280;33502;47.182;27.506;2023-04-26T08:33:28;99227.25;;;7.48;100.00
47738;BME280;33502;47.182;27.506;2023-04-26T08:35:54;99236.00;;;7.48;100.00
47738;BME280;33502;47.182;27.506;2023-04-26T08:38:20;99236.34;;;7.59;100.00
47738;BME280;33502;47.182;27.506;2023-04-26T08:40:47;99247.97;;;7.55;100.00
47738;BME280;33502;47.182;27.506;2023-04-26T08:43:13;99254.22;;;7.53;100.00
47738;BME280;33502;47.182;27.506;2023-04-26T08:45:39;99250.22;;;7.63;100.00
47738;BME280;33502;47.182;27.506;2023-04-26T08:48:06;99248.56;;;7.60;100.00
47738;BME280;33502;47.182;27.506;2023-04-26T08:50:36;99254.44;;;7.48;100.00
47738;BME280;33502;47.182;27.506;2023-04-26T08:53:03;99274.50;;;7.32;100.00
47738;BME280;33502;47.182;27.506;2023-04-26T08:55:30;99267.66;;;7.28;100.00
47738;BME280;33502;47.182;27.506;2023-04-26T08:57:57;99273.38;;;7.37;100.00
47738;BME280;33502;47.182;27.506;2023-04-26T09:00:23;99274.88;;;7.43;100.00
47738;BME280;33502;47.182;27.506;2023-04-26T09:02:49;99273.47;;;7.36;100.00
47738;BME280;33502;47.182;27.506;2023-04-26T09:05:18;99279.50;;;7.38;100.00
47738;BME280;33502;47.182;27.506;2023-04-26T09:07:48;99278.44;;;7.42;100.00
47738;BME280;33502;47.182;27.506;2023-04-26T09:10:16;99286.19;;;7.45;100.00
47738;BME280;33502;47.182;27.506;2023-04-26T09:12:44;99285.03;;;7.32;100.00
47738;BME280;33502;47.182;27.506;2023-04-26T09:15:09;99281.44;;;7.34;100.00
47738;BME280;33502;47.182;27.506;2023-04-26T09:17:37;99290.25;;;7.33;100.00
47738;BME280;33502;47.182;27.506;2023-04-26T09:22:47;99296.13;;;7.19;100.00
47738;BME280;33502;47.182;27.506;2023-04-26T09:25:14;99284.09;;;7.14;100.00
47738;BME280;33502;47.182;27.506;2023-04-26T09:27:40;99303.78;;;7.05;100.00
47738;BME280;33502;47.182;27.506;2023-04-26T09:30:14;99304.84;;;7.01;100.00
47738;BME280;33502;47.182;27.506;2023-04-26T09:32:49;99308.22;;;7.04;100.00
47738;BME280;33502;47.182;27.506;2023-04-26T09:38:00;99296.50;;;7.12;100.00
47738;BME280;33502;47.182;27.506;2023-04-26T09:40:37;99286.47;;;7.20;100.00
47738;BME280;33502;47.182;27.506;2023-04-26T09:45:43;99304.75;;;7.23;100.00
47738;BME280;33502;47.182;27.506;2023-04-26T09:48:20;99312.38;;;7.29;100.00
47738;BME280;33502;47.182;27.506;2023-04-26T09:50:47;99312.81;;;7.39;100.00
47738;BME280;33502;47.182;27.506;2023-04-26T09:53:24;99326.03;;;7.37;100.00
47738;BME280;33502;47.182;27.506;2023-04-26T09:55:50;99324.91;;;7.43;100.00
47738;BME280;33502;47.182;27.506;2023-04-26T09:58:16;99328.41;;;7.43;100.00
47738;BME280;33502;47.182;27.506;2023-04-26T10:00:42;99332.69;;;7.46;100.00
47738;BME280;33502;47.182;27.506;2023-04-26T10:03:08;99334.84;;;7.57;100.00
47738;BME280;33502;47.182;27.506;2023-04-26T10:05:34;99339.16;;;7.58;100.00
47738;BME280;33502;47.182;27.506;2023-04-26T10:08:01;99329.28;;;7.63;100.00
47738;BME280;33502;47.182;27.506;2023-04-26T10:10:28;99336.22;;;7.64;100.00
47738;BME280;33502;47.182;27.506;2023-04-26T10:12:54;99330.78;;;7.69;100.00
47738;BME280;33502;47.182;27.506;2023-04-26T10:15:20;99326.63;;;7.63;100.00
47738;BME280;33502;47.182;27.506;2023-04-26T10:17:46;99340.53;;;7.67;100.00
47738;BME280;33502;47.182;27.506;2023-04-26T10:20:12;99342.94;;;7.71;100.00
47738;BME280;33502;47.182;27.506;2023-04-26T10:22:39;99350.84;;;7.71;100.00
47738;BME280;33502;47.182;27.506;2023-04-26T10:25:08;99343.66;;;7.75;100.00
47738;BME280;33502;47.182;27.506;2023-04-26T10:30:09;99350.69;;;7.93;100.00
47738;BME280;33502;47.182;27.506;2023-04-26T10:35:17;99347.41;;;8.07;100.00
47738;BME280;33502;47.182;27.506;2023-04-26T10:40:33;99338.47;;;8.10;100.00
47738;BME280;33502;47.182;27.506;2023-04-26T10:45:35;99345.84;;;8.03;100.00
47738;BME280;33502;47.182;27.506;2023-04-26T10:55:51;99359.72;;;8.07;100.00
47738;BME280;33502;47.182;27.506;2023-04-26T10:58:27;99363.75;;;8.14;100.00
47738;BME280;33502;47.182;27.506;2023-04-26T11:01:08;99363.19;;;8.26;100.00
47738;BME280;33502;47.182;27.506;2023-04-26T11:03:39;99372.66;;;8.30;100.00
47738;BME280;33502;47.182;27.506;2023-04-26T11:06:08;99374.06;;;8.37;100.00
47738;BME280;33502;47.182;27.506;2023-04-26T11:08:34;99369.56;;;8.39;100.00
47738;BME280;33502;47.182;27.506;2023-04-26T11:13:30;99383.59;;;8.59;100.00
47738;BME280;33502;47.182;27.506;2023-04-26T11:15:59;99374.91;;;8.57;100.00
47738;BME280;33502;47.182;27.506;2023-04-26T11:18:28;99390.66;;;8.58;100.00
47738;BME280;33502;47.182;27.506;2023-04-26T11:20:54;99373.59;;;8.83;100.00
47738;BME280;33502;47.182;27.506;2023-04-26T11:23:19;99381.28;;;8.88;100.00
47738;BME280;33502;47.182;27.506;2023-04-26T11:25:47;99386.88;;;8.99;100.00
47738;BME280;33502;47.182;27.506;2023-04-26T11:28:13;99377.69;;;9.06;100.00
47738;BME280;33502;47.182;27.506;2023-04-26T11:30:39;99386.56;;;8.88;100.00
47738;BME280;33502;47.182;27.506;2023-04-26T11:33:05;99382.50;;;8.80;100.00
47738;BME280;33502;47.182;27.506;2023-04-26T11:35:37;99395.25;;;8.72;100.00
47738;BME280;33502;47.182;27.506;2023-04-26T11:38:03;99394.53;;;8.86;100.00
47738;BME280;33502;47.182;27.506;2023-04-26T11:40:32;99387.72;;;8.99;100.00
47738;BME280;33502;47.182;27.506;2023-04-26T11:42:58;99401.00;;;9.15;100.00
47738;BME280;33502;47.182;27.506;2023-04-26T11:45:25;99395.88;;;9.12;100.00
47738;BME280;33502;47.182;27.506;2023-04-26T11:47:51;99405.50;;;9.13;100.00
47738;BME280;33502;47.182;27.506;2023-04-26T11:50:16;99404.59;;;9.30;100.00
47738;BME280;33502;47.182;27.506;2023-04-26T11:52:43;99401.13;;;9.30;100.00
47738;BME280;33502;47.182;27.506;2023-04-26T11:55:09;99405.56;;;9.29;100.00
47738;BME280;33502;47.182;27.506;2023-04-26T11:57:34;99407.88;;;9.35;100.00
47738;BME280;33502;47.182;27.506;2023-04-26T12:00:10;99406.88;;;9.20;100.00
47738;BME280;33502;47.182;27.506;2023-04-26T12:02:36;99406.09;;;9.18;100.00
47738;BME280;33502;47.182;27.506;2023-04-26T12:05:02;99405.41;;;9.15;100.00
47738;BME280;33502;47.182;27.506;2023-04-26T12:07:33;99404.50;;;9.16;100.00
47738;BME280;33502;47.182;27.506;2023-04-26T12:10:12;99412.34;;;9.51;100.00
47738;BME280;33502;47.182;27.506;2023-04-26T12:12:42;99415.03;;;9.67;100.00
47738;BME280;33502;47.182;27.506;2023-04-26T12:15:09;99416.53;;;9.55;100.00
47738;BME280;33502;47.182;27.506;2023-04-26T12:17:34;99412.13;;;9.38;100.00
47738;BME280;33502;47.182;27.506;2023-04-26T12:20:07;99415.69;;;9.21;100.00
47738;BME280;33502;47.182;27.506;2023-04-26T12:22:33;99411.69;;;9.30;100.00
47738;BME280;33502;47.182;27.506;2023-04-26T12:25:05;99405.16;;;9.37;100.00
47738;BME280;33502;47.182;27.506;2023-04-26T12:27:31;99397.66;;;9.45;100.00
47738;BME280;33502;47.182;27.506;2023-04-26T12:29:56;99388.22;;;9.57;100.00
47738;BME280;33502;47.182;27.506;2023-04-26T12:32:22;99399.00;;;9.54;100.00
47738;BME280;33502;47.182;27.506;2023-04-26T12:34:48;99399.97;;;9.51;100.00
47738;BME280;33502;47.182;27.506;2023-04-26T12:37:13;99402.25;;;9.41;100.00
47738;BME280;33502;47.182;27.506;2023-04-26T12:39:39;99395.31;;;9.23;100.00
47738;BME280;33502;47.182;27.506;2023-04-26T12:42:05;99390.59;;;9.12;100.00
47738;BME280;33502;47.182;27.506;2023-04-26T12:44:30;99407.13;;;9.16;100.00
47738;BME280;33502;47.182;27.506;2023-04-26T12:46:56;99392.91;;;9.18;100.00
47738;BME280;33502;47.182;27.506;2023-04-26T12:49:22;99400.50;;;9.25;100.00
47738;BME280;33502;47.182;27.506;2023-04-26T12:51:47;99394.44;;;9.23;100.00
47738;BME280;33502;47.182;27.506;2023-04-26T12:54:13;99399.56;;;9.26;100.00
47738;BME280;33502;47.182;27.506;2023-04-26T12:56:39;99401.50;;;9.39;100.00
47738;BME280;33502;47.182;27.506;2023-04-26T12:59:08;99410.94;;;9.61;100.00
47738;BME280;33502;47.182;27.506;2023-04-26T13:01:33;99389.97;;;9.74;100.00
47738;BME280;33502;47.182;27.506;2023-04-26T13:03:59;99412.66;;;9.78;100.00
47738;BME280;33502;47.182;27.506;2023-04-26T13:06:26;99412.16;;;9.71;100.00
47738;BME280;33502;47.182;27.506;2023-04-26T13:08:52;99419.66;;;9.63;100.00
47738;BME280;33502;47.182;27.506;2023-04-26T13:11:18;99421.66;;;9.58;100.00
47738;BME280;33502;47.182;27.506;2023-04-26T13:13:44;99426.25;;;9.54;100.00